Woodardville, Louisiana
Current Conditions -  °F | °C
As of 3:15 PM on Tuesday 21 Oct 2014 (Local Time) from KMNE Reporting Station
Scattered Clouds Scattered Clouds  
Wind Chill: 81°   Ceiling: Unl
Heat Index: 81°   Visibility: 10mi
Dew Point: 61°   Wind: 3mph
Humidity: 51%   Direction: 320°NW
Pressure: 30.04"   Gusts: NA
Location:  32.3153°N, 93.2953°W
Report Text: KMNE 212015Z AUTO 32003KT 10SM SCT044 SCT055 27/16 A3004 RMK AO2
Loading
Personal Weather Stations






























Interactive Weather Map
Tropical Storm Tracking
New forecast layout! Learn more

10-Day Weather Forecast

Advertisements
Track Severe Weather on mobile